sensor_id;sensor_type;location;lat;lon;timestamp;P1;durP1;ratioP1;P2;durP2;ratioP2
53293;SDS011;39181;53.440;5.644;2023-06-04T00:01:52;8.57;;;1.95;;
53293;SDS011;39181;53.440;5.644;2023-06-04T00:04:17;9.82;;;2.17;;
53293;SDS011;39181;53.440;5.644;2023-06-04T00:06:43;7.75;;;2.15;;
53293;SDS011;39181;53.440;5.644;2023-06-04T00:09:09;9.65;;;2.05;;
53293;SDS011;39181;53.440;5.644;2023-06-04T00:11:34;11.18;;;1.90;;
53293;SDS011;39181;53.440;5.644;2023-06-04T00:14:01;8.35;;;2.00;;
53293;SDS011;39181;53.440;5.644;2023-06-04T00:16:27;10.65;;;2.20;;
53293;SDS011;39181;53.440;5.644;2023-06-04T00:18:53;7.75;;;2.28;;
53293;SDS011;39181;53.440;5.644;2023-06-04T00:21:18;28.92;;;2.88;;
53293;SDS011;39181;53.440;5.644;2023-06-04T00:23:44;9.93;;;2.30;;
53293;SDS011;39181;53.440;5.644;2023-06-04T00:26:09;10.75;;;3.05;;
53293;SDS011;39181;53.440;5.644;2023-06-04T00:28:35;13.38;;;2.13;;
53293;SDS011;39181;53.440;5.644;2023-06-04T00:31:04;15.65;;;2.42;;
53293;SDS011;39181;53.440;5.644;2023-06-04T00:33:30;9.10;;;1.98;;
53293;SDS011;39181;53.440;5.644;2023-06-04T00:35:56;14.38;;;2.42;;
53293;SDS011;39181;53.440;5.644;2023-06-04T00:38:22;12.63;;;2.33;;
53293;SDS011;39181;53.440;5.644;2023-06-04T00:40:48;10.88;;;2.22;;
53293;SDS011;39181;53.440;5.644;2023-06-04T00:43:13;8.98;;;2.42;;
53293;SDS011;39181;53.440;5.644;2023-06-04T00:45:39;13.20;;;2.60;;
53293;SDS011;39181;53.440;5.644;2023-06-04T00:48:05;11.82;;;2.63;;
53293;SDS011;39181;53.440;5.644;2023-06-04T00:50:31;10.05;;;2.30;;
53293;SDS011;39181;53.440;5.644;2023-06-04T00:52:58;8.40;;;2.50;;
53293;SDS011;39181;53.440;5.644;2023-06-04T00:55:24;12.90;;;2.47;;
53293;SDS011;39181;53.440;5.644;2023-06-04T00:57:50;14.10;;;2.80;;
53293;SDS011;39181;53.440;5.644;2023-06-04T01:00:15;10.52;;;2.35;;
53293;SDS011;39181;53.440;5.644;2023-06-04T01:02:42;11.57;;;2.63;;
53293;SDS011;39181;53.440;5.644;2023-06-04T01:08:17;14.93;;;2.83;;
53293;SDS011;39181;53.440;5.644;2023-06-04T01:10:50;5.93;;;2.00;;
53293;SDS011;39181;53.440;5.644;2023-06-04T01:13:16;11.23;;;2.17;;
53293;SDS011;39181;53.440;5.644;2023-06-04T01:15:42;8.73;;;2.00;;
53293;SDS011;39181;53.440;5.644;2023-06-04T01:18:07;8.50;;;2.10;;
53293;SDS011;39181;53.440;5.644;2023-06-04T01:23:14;8.52;;;2.30;;
53293;SDS011;39181;53.440;5.644;2023-06-04T01:25:40;11.52;;;2.17;;
53293;SDS011;39181;53.440;5.644;2023-06-04T01:28:09;13.93;;;2.92;;
53293;SDS011;39181;53.440;5.644;2023-06-04T01:30:37;6.18;;;2.17;;
53293;SDS011;39181;53.440;5.644;2023-06-04T01:33:08;8.90;;;1.87;;
53293;SDS011;39181;53.440;5.644;2023-06-04T01:35:38;5.55;;;2.00;;
53293;SDS011;39181;53.440;5.644;2023-06-04T01:38:04;8.85;;;1.90;;
53293;SDS011;39181;53.440;5.644;2023-06-04T01:40:30;5.57;;;2.72;;
53293;SDS011;39181;53.440;5.644;2023-06-04T01:42:55;6.90;;;1.95;;
53293;SDS011;39181;53.440;5.644;2023-06-04T01:45:26;7.82;;;1.98;;
53293;SDS011;39181;53.440;5.644;2023-06-04T01:47:52;7.35;;;2.30;;
53293;SDS011;39181;53.440;5.644;2023-06-04T01:50:18;7.75;;;2.40;;
53293;SDS011;39181;53.440;5.644;2023-06-04T01:52:44;5.90;;;2.20;;
53293;SDS011;39181;53.440;5.644;2023-06-04T01:55:11;11.38;;;2.10;;
53293;SDS011;39181;53.440;5.644;2023-06-04T01:57:39;8.07;;;2.58;;
53293;SDS011;39181;53.440;5.644;2023-06-04T02:00:06;10.65;;;2.10;;
53293;SDS011;39181;53.440;5.644;2023-06-04T02:02:39;12.52;;;2.40;;
53293;SDS011;39181;53.440;5.644;2023-06-04T02:05:13;8.32;;;2.33;;
53293;SDS011;39181;53.440;5.644;2023-06-04T02:07:40;11.68;;;3.65;;
53293;SDS011;39181;53.440;5.644;2023-06-04T02:10:08;7.72;;;2.25;;
53293;SDS011;39181;53.440;5.644;2023-06-04T02:12:35;6.45;;;2.53;;
53293;SDS011;39181;53.440;5.644;2023-06-04T02:15:02;10.50;;;2.97;;
53293;SDS011;39181;53.440;5.644;2023-06-04T02:17:28;6.90;;;2.40;;
53293;SDS011;39181;53.440;5.644;2023-06-04T02:19:57;9.65;;;2.40;;
53293;SDS011;39181;53.440;5.644;2023-06-04T02:22:23;5.95;;;1.65;;
53293;SDS011;39181;53.440;5.644;2023-06-04T02:24:50;8.95;;;2.25;;
53293;SDS011;39181;53.440;5.644;2023-06-04T02:27:16;6.82;;;2.10;;
53293;SDS011;39181;53.440;5.644;2023-06-04T02:29:42;9.18;;;2.17;;
53293;SDS011;39181;53.440;5.644;2023-06-04T02:32:08;7.88;;;2.25;;
53293;SDS011;39181;53.440;5.644;2023-06-04T02:34:34;5.13;;;2.40;;
53293;SDS011;39181;53.440;5.644;2023-06-04T02:37:00;4.80;;;2.00;;
53293;SDS011;39181;53.440;5.644;2023-06-04T02:39:26;7.63;;;2.38;;
53293;SDS011;39181;53.440;5.644;2023-06-04T02:41:52;7.82;;;2.22;;
53293;SDS011;39181;53.440;5.644;2023-06-04T02:44:17;10.13;;;2.80;;
53293;SDS011;39181;53.440;5.644;2023-06-04T02:46:43;9.30;;;2.60;;
53293;SDS011;39181;53.440;5.644;2023-06-04T02:49:09;8.43;;;2.65;;
53293;SDS011;39181;53.440;5.644;2023-06-04T02:51:39;8.35;;;2.28;;
53293;SDS011;39181;53.440;5.644;2023-06-04T02:54:05;10.80;;;2.40;;
53293;SDS011;39181;53.440;5.644;2023-06-04T02:56:31;11.02;;;2.22;;
53293;SDS011;39181;53.440;5.644;2023-06-04T02:58:56;7.78;;;2.10;;
53293;SDS011;39181;53.440;5.644;2023-06-04T03:01:22;7.10;;;2.45;;
53293;SDS011;39181;53.440;5.644;2023-06-04T03:03:49;6.22;;;2.10;;
53293;SDS011;39181;53.440;5.644;2023-06-04T03:06:15;12.05;;;3.10;;
53293;SDS011;39181;53.440;5.644;2023-06-04T03:08:43;13.55;;;3.40;;
53293;SDS011;39181;53.440;5.644;2023-06-04T03:11:08;8.10;;;2.30;;
53293;SDS011;39181;53.440;5.644;2023-06-04T03:13:34;9.43;;;2.92;;
53293;SDS011;39181;53.440;5.644;2023-06-04T03:16:01;6.32;;;2.40;;
53293;SDS011;39181;53.440;5.644;2023-06-04T03:18:30;6.65;;;2.47;;
53293;SDS011;39181;53.440;5.644;2023-06-04T03:20:56;7.18;;;1.85;;
53293;SDS011;39181;53.440;5.644;2023-06-04T03:23:22;9.05;;;2.42;;
53293;SDS011;39181;53.440;5.644;2023-06-04T03:25:48;10.43;;;2.80;;
53293;SDS011;39181;53.440;5.644;2023-06-04T03:28:13;8.55;;;2.40;;
53293;SDS011;39181;53.440;5.644;2023-06-04T03:30:40;11.32;;;2.67;;
53293;SDS011;39181;53.440;5.644;2023-06-04T03:33:06;5.25;;;2.40;;
53293;SDS011;39181;53.440;5.644;2023-06-04T03:35:32;3.78;;;2.22;;
53293;SDS011;39181;53.440;5.644;2023-06-04T03:37:58;8.07;;;2.50;;
53293;SDS011;39181;53.440;5.644;2023-06-04T03:40:23;6.03;;;2.15;;
53293;SDS011;39181;53.440;5.644;2023-06-04T03:42:49;6.05;;;2.20;;
53293;SDS011;39181;53.440;5.644;2023-06-04T03:45:14;13.52;;;2.28;;
53293;SDS011;39181;53.440;5.644;2023-06-04T03:47:40;6.28;;;2.45;;
53293;SDS011;39181;53.440;5.644;2023-06-04T03:50:06;4.63;;;2.50;;
53293;SDS011;39181;53.440;5.644;2023-06-04T03:52:31;7.45;;;2.05;;
53293;SDS011;39181;53.440;5.644;2023-06-04T03:54:57;9.30;;;2.50;;
53293;SDS011;39181;53.440;5.644;2023-06-04T03:57:23;4.18;;;2.22;;
53293;SDS011;39181;53.440;5.644;2023-06-04T03:59:49;9.88;;;2.38;;
53293;SDS011;39181;53.440;5.644;2023-06-04T04:02:15;7.53;;;2.92;;
53293;SDS011;39181;53.440;5.644;2023-06-04T04:04:43;10.55;;;2.15;;
53293;SDS011;39181;53.440;5.644;2023-06-04T04:07:08;6.57;;;2.22;;
53293;SDS011;39181;53.440;5.644;2023-06-04T04:09:35;11.65;;;2.28;;
53293;SDS011;39181;53.440;5.644;2023-06-04T04:12:01;8.38;;;2.03;;
53293;SDS011;39181;53.440;5.644;2023-06-04T04:14:27;8.23;;;2.38;;
53293;SDS011;39181;53.440;5.644;2023-06-04T04:16:53;7.45;;;2.45;;
53293;SDS011;39181;53.440;5.644;2023-06-04T04:19:19;10.65;;;1.95;;
53293;SDS011;39181;53.440;5.644;2023-06-04T04:21:45;8.13;;;2.15;;
53293;SDS011;39181;53.440;5.644;2023-06-04T04:24:21;9.82;;;2.30;;
53293;SDS011;39181;53.440;5.644;2023-06-04T04:26:51;6.03;;;2.40;;
53293;SDS011;39181;53.440;5.644;2023-06-04T04:29:20;5.55;;;2.03;;
53293;SDS011;39181;53.440;5.644;2023-06-04T04:31:52;7.95;;;1.98;;
53293;SDS011;39181;53.440;5.644;2023-06-04T04:34:21;9.87;;;2.33;;
53293;SDS011;39181;53.440;5.644;2023-06-04T04:36:48;8.55;;;1.85;;
53293;SDS011;39181;53.440;5.644;2023-06-04T04:39:26;11.02;;;2.10;;
53293;SDS011;39181;53.440;5.644;2023-06-04T04:41:53;8.60;;;2.10;;
53293;SDS011;39181;53.440;5.644;2023-06-04T04:44:19;7.60;;;2.35;;
53293;SDS011;39181;53.440;5.644;2023-06-04T04:46:45;11.27;;;2.38;;
53293;SDS011;39181;53.440;5.644;2023-06-04T04:49:11;12.40;;;2.30;;
53293;SDS011;39181;53.440;5.644;2023-06-04T04:51:36;12.10;;;2.60;;
53293;SDS011;39181;53.440;5.644;2023-06-04T04:54:02;12.65;;;2.42;;
53293;SDS011;39181;53.440;5.644;2023-06-04T04:56:28;11.02;;;2.65;;
53293;SDS011;39181;53.440;5.644;2023-06-04T04:58:54;5.38;;;1.88;;
53293;SDS011;39181;53.440;5.644;2023-06-04T05:01:20;6.65;;;2.33;;
53293;SDS011;39181;53.440;5.644;2023-06-04T05:03:46;9.52;;;1.75;;
53293;SDS011;39181;53.440;5.644;2023-06-04T05:06:13;9.18;;;2.13;;
53293;SDS011;39181;53.440;5.644;2023-06-04T05:08:39;8.85;;;2.47;;
53293;SDS011;39181;53.440;5.644;2023-06-04T05:11:04;9.80;;;1.90;;
53293;SDS011;39181;53.440;5.644;2023-06-04T05:13:30;7.82;;;1.63;;
53293;SDS011;39181;53.440;5.644;2023-06-04T05:15:55;7.13;;;2.00;;
53293;SDS011;39181;53.440;5.644;2023-06-04T05:18:21;11.65;;;1.95;;
53293;SDS011;39181;53.440;5.644;2023-06-04T05:20:57;7.78;;;1.73;;
53293;SDS011;39181;53.440;5.644;2023-06-04T05:23:24;7.70;;;1.60;;
53293;SDS011;39181;53.440;5.644;2023-06-04T05:25:51;7.65;;;2.15;;
53293;SDS011;39181;53.440;5.644;2023-06-04T05:28:17;8.65;;;1.83;;
53293;SDS011;39181;53.440;5.644;2023-06-04T05:30:43;4.63;;;1.67;;
53293;SDS011;39181;53.440;5.644;2023-06-04T05:33:09;6.22;;;1.60;;
53293;SDS011;39181;53.440;5.644;2023-06-04T05:35:51;9.25;;;1.67;;
53293;SDS011;39181;53.440;5.644;2023-06-04T05:38:19;5.40;;;1.40;;
53293;SDS011;39181;53.440;5.644;2023-06-04T05:40:45;7.55;;;2.03;;
53293;SDS011;39181;53.440;5.644;2023-06-04T05:43:10;10.25;;;1.73;;
53293;SDS011;39181;53.440;5.644;2023-06-04T05:45:36;7.05;;;1.90;;
53293;SDS011;39181;53.440;5.644;2023-06-04T05:48:02;7.22;;;1.88;;
53293;SDS011;39181;53.440;5.644;2023-06-04T05:50:29;5.90;;;1.67;;
53293;SDS011;39181;53.440;5.644;2023-06-04T05:52:55;7.95;;;1.70;;
53293;SDS011;39181;53.440;5.644;2023-06-04T05:55:21;7.35;;;1.48;;
53293;SDS011;39181;53.440;5.644;2023-06-04T05:57:48;5.65;;;1.48;;
53293;SDS011;39181;53.440;5.644;2023-06-04T06:00:14;4.65;;;1.50;;
53293;SDS011;39181;53.440;5.644;2023-06-04T06:02:40;5.53;;;1.60;;
53293;SDS011;39181;53.440;5.644;2023-06-04T06:05:06;6.88;;;1.75;;
53293;SDS011;39181;53.440;5.644;2023-06-04T06:07:33;5.78;;;1.58;;
53293;SDS011;39181;53.440;5.644;2023-06-04T06:09:59;8.80;;;1.50;;
53293;SDS011;39181;53.440;5.644;2023-06-04T06:12:25;8.27;;;1.67;;
53293;SDS011;39181;53.440;5.644;2023-06-04T06:14:50;2.47;;;1.40;;
53293;SDS011;39181;53.440;5.644;2023-06-04T06:17:16;5.43;;;1.60;;
53293;SDS011;39181;53.440;5.644;2023-06-04T06:19:41;5.78;;;1.52;;
53293;SDS011;39181;53.440;5.644;2023-06-04T06:22:07;5.57;;;1.58;;
53293;SDS011;39181;53.440;5.644;2023-06-04T06:24:33;8.20;;;1.90;;
53293;SDS011;39181;53.440;5.644;2023-06-04T06:26:59;3.80;;;1.40;;
53293;SDS011;39181;53.440;5.644;2023-06-04T06:29:24;6.78;;;1.95;;
53293;SDS011;39181;53.440;5.644;2023-06-04T06:31:50;5.80;;;1.50;;
53293;SDS011;39181;53.440;5.644;2023-06-04T06:34:15;4.93;;;1.30;;
53293;SDS011;39181;53.440;5.644;2023-06-04T06:36:41;5.82;;;1.25;;
53293;SDS011;39181;53.440;5.644;2023-06-04T06:39:07;7.32;;;1.77;;
53293;SDS011;39181;53.440;5.644;2023-06-04T06:41:33;4.25;;;1.27;;
53293;SDS011;39181;53.440;5.644;2023-06-04T06:43:59;4.35;;;1.20;;
53293;SDS011;39181;53.440;5.644;2023-06-04T06:46:25;7.95;;;1.60;;
53293;SDS011;39181;53.440;5.644;2023-06-04T06:48:50;4.68;;;1.17;;
53293;SDS011;39181;53.440;5.644;2023-06-04T06:51:16;5.35;;;1.80;;
53293;SDS011;39181;53.440;5.644;2023-06-04T06:53:42;8.88;;;1.52;;
53293;SDS011;39181;53.440;5.644;2023-06-04T06:56:08;4.80;;;1.25;;
53293;SDS011;39181;53.440;5.644;2023-06-04T06:58:34;2.25;;;1.10;;
53293;SDS011;39181;53.440;5.644;2023-06-04T07:00:59;6.55;;;1.48;;
53293;SDS011;39181;53.440;5.644;2023-06-04T07:03:25;6.15;;;1.40;;
53293;SDS011;39181;53.440;5.644;2023-06-04T07:05:51;4.25;;;1.45;;
53293;SDS011;39181;53.440;5.644;2023-06-04T07:08:17;4.80;;;1.35;;
53293;SDS011;39181;53.440;5.644;2023-06-04T07:10:43;4.50;;;1.30;;
53293;SDS011;39181;53.440;5.644;2023-06-04T07:13:08;7.13;;;1.50;;
53293;SDS011;39181;53.440;5.644;2023-06-04T07:15:34;4.68;;;1.20;;
53293;SDS011;39181;53.440;5.644;2023-06-04T07:18:00;3.95;;;1.10;;
53293;SDS011;39181;53.440;5.644;2023-06-04T07:20:25;3.05;;;1.33;;
53293;SDS011;39181;53.440;5.644;2023-06-04T07:22:51;4.13;;;1.05;;
53293;SDS011;39181;53.440;5.644;2023-06-04T07:25:16;5.35;;;1.20;;
53293;SDS011;39181;53.440;5.644;2023-06-04T07:27:42;5.20;;;1.20;;
53293;SDS011;39181;53.440;5.644;2023-06-04T07:30:08;4.78;;;1.40;;
53293;SDS011;39181;53.440;5.644;2023-06-04T07:32:34;4.70;;;1.15;;
53293;SDS011;39181;53.440;5.644;2023-06-04T07:35:00;6.22;;;1.48;;
53293;SDS011;39181;53.440;5.644;2023-06-04T07:37:26;10.45;;;1.40;;
53293;SDS011;39181;53.440;5.644;2023-06-04T07:39:52;7.18;;;1.38;;
53293;SDS011;39181;53.440;5.644;2023-06-04T07:42:17;2.20;;;1.05;;
53293;SDS011;39181;53.440;5.644;2023-06-04T07:44:43;5.30;;;1.25;;
53293;SDS011;39181;53.440;5.644;2023-06-04T07:47:09;4.60;;;1.48;;
53293;SDS011;39181;53.440;5.644;2023-06-04T07:49:35;4.40;;;1.33;;
53293;SDS011;39181;53.440;5.644;2023-06-04T07:52:00;4.65;;;1.30;;
53293;SDS011;39181;53.440;5.644;2023-06-04T07:54:26;2.92;;;1.17;;
53293;SDS011;39181;53.440;5.644;2023-06-04T07:56:52;4.28;;;1.27;;
53293;SDS011;39181;53.440;5.644;2023-06-04T07:59:21;4.95;;;1.77;;
53293;SDS011;39181;53.440;5.644;2023-06-04T08:01:50;4.70;;;1.52;;
53293;SDS011;39181;53.440;5.644;2023-06-04T08:04:16;4.68;;;1.30;;
53293;SDS011;39181;53.440;5.644;2023-06-04T08:06:42;4.15;;;1.50;;
53293;SDS011;39181;53.440;5.644;2023-06-04T08:09:09;5.85;;;1.50;;
53293;SDS011;39181;53.440;5.644;2023-06-04T08:11:36;4.70;;;1.40;;
53293;SDS011;39181;53.440;5.644;2023-06-04T08:14:02;5.68;;;1.70;;
53293;SDS011;39181;53.440;5.644;2023-06-04T08:16:27;5.05;;;1.25;;
53293;SDS011;39181;53.440;5.644;2023-06-04T08:18:53;3.47;;;1.10;;
53293;SDS011;39181;53.440;5.644;2023-06-04T08:21:25;4.88;;;1.30;;
53293;SDS011;39181;53.440;5.644;2023-06-04T08:26:17;5.75;;;1.30;;
53293;SDS011;39181;53.440;5.644;2023-06-04T08:28:47;3.47;;;1.30;;
53293;SDS011;39181;53.440;5.644;2023-06-04T08:31:13;7.93;;;1.63;;
53293;SDS011;39181;53.440;5.644;2023-06-04T08:33:38;6.65;;;1.55;;
53293;SDS011;39181;53.440;5.644;2023-06-04T08:36:05;4.72;;;1.40;;
53293;SDS011;39181;53.440;5.644;2023-06-04T08:38:31;6.68;;;1.27;;
53293;SDS011;39181;53.440;5.644;2023-06-04T08:40:58;5.75;;;1.55;;
53293;SDS011;39181;53.440;5.644;2023-06-04T08:43:29;5.45;;;1.52;;
53293;SDS011;39181;53.440;5.644;2023-06-04T08:45:59;9.43;;;1.75;;
53293;SDS011;39181;53.440;5.644;2023-06-04T08:48:31;7.82;;;1.63;;
53293;SDS011;39181;53.440;5.644;2023-06-04T08:50:57;8.18;;;1.27;;
53293;SDS011;39181;53.440;5.644;2023-06-04T08:53:25;7.55;;;1.23;;
53293;SDS011;39181;53.440;5.644;2023-06-04T08:55:51;3.95;;;1.50;;
53293;SDS011;39181;53.440;5.644;2023-06-04T08:58:18;3.90;;;1.20;;
53293;SDS011;39181;53.440;5.644;2023-06-04T09:00:45;3.90;;;1.30;;
53293;SDS011;39181;53.440;5.644;2023-06-04T09:03:10;4.75;;;1.27;;
53293;SDS011;39181;53.440;5.644;2023-06-04T09:05:37;4.75;;;1.45;;
53293;SDS011;39181;53.440;5.644;2023-06-04T09:08:04;4.85;;;1.30;;
53293;SDS011;39181;53.440;5.644;2023-06-04T09:10:36;5.63;;;1.58;;
53293;SDS011;39181;53.440;5.644;2023-06-04T09:13:03;4.15;;;1.50;;
53293;SDS011;39181;53.440;5.644;2023-06-04T09:15:31;4.93;;;1.50;;
53293;SDS011;39181;53.440;5.644;2023-06-04T09:17:57;3.47;;;0.93;;
53293;SDS011;39181;53.440;5.644;2023-06-04T09:20:23;5.78;;;1.40;;
53293;SDS011;39181;53.440;5.644;2023-06-04T09:22:49;5.95;;;1.50;;
53293;SDS011;39181;53.440;5.644;2023-06-04T09:25:22;3.50;;;1.25;;
53293;SDS011;39181;53.440;5.644;2023-06-04T09:27:50;2.97;;;1.40;;
53293;SDS011;39181;53.440;5.644;2023-06-04T09:30:16;5.57;;;1.17;;
53293;SDS011;39181;53.440;5.644;2023-06-04T09:32:42;5.95;;;2.00;;
53293;SDS011;39181;53.440;5.644;2023-06-04T09:35:09;4.13;;;1.13;;
53293;SDS011;39181;53.440;5.644;2023-06-04T09:37:36;5.20;;;1.33;;
53293;SDS011;39181;53.440;5.644;2023-06-04T09:40:03;2.05;;;0.95;;
53293;SDS011;39181;53.440;5.644;2023-06-04T09:42:30;5.00;;;1.30;;
53293;SDS011;39181;53.440;5.644;2023-06-04T09:45:07;5.47;;;1.45;;
53293;SDS011;39181;53.440;5.644;2023-06-04T09:47:40;4.90;;;1.45;;
53293;SDS011;39181;53.440;5.644;2023-06-04T09:50:12;3.78;;;1.63;;
53293;SDS011;39181;53.440;5.644;2023-06-04T09:52:38;5.18;;;1.02;;
53293;SDS011;39181;53.440;5.644;2023-06-04T09:55:15;2.90;;;1.10;;
53293;SDS011;39181;53.440;5.644;2023-06-04T09:57:46;3.47;;;1.55;;
53293;SDS011;39181;53.440;5.644;2023-06-04T10:00:14;7.13;;;1.50;;
53293;SDS011;39181;53.440;5.644;2023-06-04T10:02:43;6.55;;;1.40;;
53293;SDS011;39181;53.440;5.644;2023-06-04T10:05:11;4.63;;;1.10;;
53293;SDS011;39181;53.440;5.644;2023-06-04T10:07:39;2.88;;;1.23;;
53293;SDS011;39181;53.440;5.644;2023-06-04T10:10:10;6.03;;;1.20;;
53293;SDS011;39181;53.440;5.644;2023-06-04T10:12:40;5.65;;;1.23;;
53293;SDS011;39181;53.440;5.644;2023-06-04T10:15:10;3.58;;;1.30;;
53293;SDS011;39181;53.440;5.644;2023-06-04T10:17:37;4.22;;;1.30;;
53293;SDS011;39181;53.440;5.644;2023-06-04T10:20:04;1.58;;;1.05;;
53293;SDS011;39181;53.440;5.644;2023-06-04T10:22:33;5.35;;;1.40;;
53293;SDS011;39181;53.440;5.644;2023-06-04T10:24:59;4.22;;;1.40;;
53293;SDS011;39181;53.440;5.644;2023-06-04T10:27:26;3.50;;;1.20;;
53293;SDS011;39181;53.440;5.644;2023-06-04T10:29:51;3.42;;;1.20;;
53293;SDS011;39181;53.440;5.644;2023-06-04T10:32:18;3.08;;;1.00;;
53293;SDS011;39181;53.440;5.644;2023-06-04T10:34:44;4.78;;;1.50;;
53293;SDS011;39181;53.440;5.644;2023-06-04T10:37:20;2.75;;;1.13;;
53293;SDS011;39181;53.440;5.644;2023-06-04T10:39:51;5.00;;;1.00;;
53293;SDS011;39181;53.440;5.644;2023-06-04T10:44:49;4.75;;;1.38;;
53293;SDS011;39181;53.440;5.644;2023-06-04T10:47:23;5.88;;;1.23;;
53293;SDS011;39181;53.440;5.644;2023-06-04T10:49:50;4.43;;;1.65;;
53293;SDS011;39181;53.440;5.644;2023-06-04T10:52:17;3.90;;;1.30;;
53293;SDS011;39181;53.440;5.644;2023-06-04T10:54:44;4.90;;;1.40;;
53293;SDS011;39181;53.440;5.644;2023-06-04T10:59:38;5.95;;;1.73;;
53293;SDS011;39181;53.440;5.644;2023-06-04T11:02:07;3.88;;;1.30;;
53293;SDS011;39181;53.440;5.644;2023-06-04T11:04:34;4.60;;;1.73;;
53293;SDS011;39181;53.440;5.644;2023-06-04T11:07:02;4.35;;;1.50;;
53293;SDS011;39181;53.440;5.644;2023-06-04T11:09:30;4.50;;;1.20;;
53293;SDS011;39181;53.440;5.644;2023-06-04T11:11:56;4.82;;;1.23;;
53293;SDS011;39181;53.440;5.644;2023-06-04T11:14:23;2.80;;;1.13;;
53293;SDS011;39181;53.440;5.644;2023-06-04T11:16:49;4.75;;;1.40;;
53293;SDS011;39181;53.440;5.644;2023-06-04T11:19:15;4.13;;;1.38;;
53293;SDS011;39181;53.440;5.644;2023-06-04T11:21:40;3.30;;;1.27;;
53293;SDS011;39181;53.440;5.644;2023-06-04T11:24:06;4.35;;;1.10;;
53293;SDS011;39181;53.440;5.644;2023-06-04T11:26:32;7.35;;;2.03;;
53293;SDS011;39181;53.440;5.644;2023-06-04T11:28:59;3.28;;;1.20;;
53293;SDS011;39181;53.440;5.644;2023-06-04T11:31:26;4.20;;;1.20;;
53293;SDS011;39181;53.440;5.644;2023-06-04T11:33:52;7.07;;;1.95;;
53293;SDS011;39181;53.440;5.644;2023-06-04T11:39:02;3.03;;;1.50;;
53293;SDS011;39181;53.440;5.644;2023-06-04T11:41:32;5.22;;;1.30;;
53293;SDS011;39181;53.440;5.644;2023-06-04T11:44:04;4.82;;;1.50;;
53293;SDS011;39181;53.440;5.644;2023-06-04T11:46:32;4.40;;;1.33;;
53293;SDS011;39181;53.440;5.644;2023-06-04T11:48:58;4.72;;;1.38;;
53293;SDS011;39181;53.440;5.644;2023-06-04T11:51:24;2.63;;;1.10;;
53293;SDS011;39181;53.440;5.644;2023-06-04T11:53:50;4.80;;;1.88;;
53293;SDS011;39181;53.440;5.644;2023-06-04T11:56:16;3.67;;;1.20;;
53293;SDS011;39181;53.440;5.644;2023-06-04T11:58:43;5.55;;;1.38;;
53293;SDS011;39181;53.440;5.644;2023-06-04T12:01:10;3.42;;;1.40;;
53293;SDS011;39181;53.440;5.644;2023-06-04T12:03:39;5.45;;;1.40;;
53293;SDS011;39181;53.440;5.644;2023-06-04T12:06:12;3.15;;;1.60;;
53293;SDS011;39181;53.440;5.644;2023-06-04T12:08:52;3.53;;;1.25;;
53293;SDS011;39181;53.440;5.644;2023-06-04T12:11:27;4.90;;;1.33;;
53293;SDS011;39181;53.440;5.644;2023-06-04T12:13:56;6.50;;;1.20;;
53293;SDS011;39181;53.440;5.644;2023-06-04T12:16:29;6.82;;;1.50;;
53293;SDS011;39181;53.440;5.644;2023-06-04T12:19:11;2.15;;;1.13;;
53293;SDS011;39181;53.440;5.644;2023-06-04T12:21:37;5.38;;;1.52;;
53293;SDS011;39181;53.440;5.644;2023-06-04T12:29:09;9.13;;;1.77;;
53293;SDS011;39181;53.440;5.644;2023-06-04T12:31:36;3.63;;;1.30;;
53293;SDS011;39181;53.440;5.644;2023-06-04T12:36:35;2.85;;;1.30;;
53293;SDS011;39181;53.440;5.644;2023-06-04T12:39:04;3.20;;;1.48;;
53293;SDS011;39181;53.440;5.644;2023-06-04T12:41:32;6.63;;;1.50;;
53293;SDS011;39181;53.440;5.644;2023-06-04T12:43:59;4.43;;;1.52;;
53293;SDS011;39181;53.440;5.644;2023-06-04T12:46:25;5.22;;;1.35;;
53293;SDS011;39181;53.440;5.644;2023-06-04T12:48:52;4.47;;;1.27;;
53293;SDS011;39181;53.440;5.644;2023-06-04T12:51:18;3.25;;;1.40;;
53293;SDS011;39181;53.440;5.644;2023-06-04T12:53:45;4.35;;;1.20;;
53293;SDS011;39181;53.440;5.644;2023-06-04T12:56:11;3.53;;;1.25;;
53293;SDS011;39181;53.440;5.644;2023-06-04T12:58:37;8.23;;;2.22;;
53293;SDS011;39181;53.440;5.644;2023-06-04T13:01:03;4.13;;;1.30;;
53293;SDS011;39181;53.440;5.644;2023-06-04T13:03:32;4.50;;;1.27;;
53293;SDS011;39181;53.440;5.644;2023-06-04T13:06:01;4.45;;;1.38;;
53293;SDS011;39181;53.440;5.644;2023-06-04T13:08:26;3.45;;;1.27;;
53293;SDS011;39181;53.440;5.644;2023-06-04T13:10:52;4.78;;;1.25;;
53293;SDS011;39181;53.440;5.644;2023-06-04T13:13:18;5.85;;;1.33;;
53293;SDS011;39181;53.440;5.644;2023-06-04T13:15:44;3.95;;;1.20;;
53293;SDS011;39181;53.440;5.644;2023-06-04T13:18:10;4.03;;;1.55;;
53293;SDS011;39181;53.440;5.644;2023-06-04T13:20:36;3.88;;;1.33;;
53293;SDS011;39181;53.440;5.644;2023-06-04T13:23:03;5.10;;;1.25;;
53293;SDS011;39181;53.440;5.644;2023-06-04T13:25:28;7.75;;;1.55;;
53293;SDS011;39181;53.440;5.644;2023-06-04T13:27:57;4.20;;;1.48;;
53293;SDS011;39181;53.440;5.644;2023-06-04T13:30:23;4.80;;;1.40;;
53293;SDS011;39181;53.440;5.644;2023-06-04T13:32:49;4.20;;;1.35;;
53293;SDS011;39181;53.440;5.644;2023-06-04T13:35:15;3.95;;;1.33;;
53293;SDS011;39181;53.440;5.644;2023-06-04T13:37:41;6.65;;;1.80;;
53293;SDS011;39181;53.440;5.644;2023-06-04T13:40:06;12.43;;;2.15;;
53293;SDS011;39181;53.440;5.644;2023-06-04T13:42:33;5.97;;;1.50;;
53293;SDS011;39181;53.440;5.644;2023-06-04T13:44:58;4.35;;;2.05;;
53293;SDS011;39181;53.440;5.644;2023-06-04T13:47:24;7.00;;;1.45;;
53293;SDS011;39181;53.440;5.644;2023-06-04T13:49:50;4.35;;;1.58;;
53293;SDS011;39181;53.440;5.644;2023-06-04T13:52:16;9.73;;;1.42;;
53293;SDS011;39181;53.440;5.644;2023-06-04T13:54:42;9.02;;;2.17;;
53293;SDS011;39181;53.440;5.644;2023-06-04T13:57:08;8.63;;;1.85;;
53293;SDS011;39181;53.440;5.644;2023-06-04T13:59:36;6.22;;;1.40;;
53293;SDS011;39181;53.440;5.644;2023-06-04T14:02:02;7.75;;;1.83;;
53293;SDS011;39181;53.440;5.644;2023-06-04T14:04:28;8.48;;;1.30;;
53293;SDS011;39181;53.440;5.644;2023-06-04T14:06:53;4.32;;;1.27;;
53293;SDS011;39181;53.440;5.644;2023-06-04T14:09:19;7.03;;;1.60;;
53293;SDS011;39181;53.440;5.644;2023-06-04T14:11:45;5.85;;;1.38;;
53293;SDS011;39181;53.440;5.644;2023-06-04T14:14:15;14.93;;;2.60;;
53293;SDS011;39181;53.440;5.644;2023-06-04T14:16:47;5.97;;;1.20;;
53293;SDS011;39181;53.440;5.644;2023-06-04T14:19:13;4.70;;;1.35;;
53293;SDS011;39181;53.440;5.644;2023-06-04T14:21:38;4.30;;;1.20;;
53293;SDS011;39181;53.440;5.644;2023-06-04T14:24:05;2.33;;;1.75;;
53293;SDS011;39181;53.440;5.644;2023-06-04T14:26:31;4.22;;;1.30;;
53293;SDS011;39181;53.440;5.644;2023-06-04T14:28:57;5.10;;;1.48;;
53293;SDS011;39181;53.440;5.644;2023-06-04T14:31:22;4.75;;;1.15;;
53293;SDS011;39181;53.440;5.644;2023-06-04T14:33:48;4.97;;;1.63;;
53293;SDS011;39181;53.440;5.644;2023-06-04T14:36:14;3.72;;;1.20;;
53293;SDS011;39181;53.440;5.644;2023-06-04T14:38:40;5.22;;;1.58;;
53293;SDS011;39181;53.440;5.644;2023-06-04T14:41:06;5.70;;;1.20;;
53293;SDS011;39181;53.440;5.644;2023-06-04T14:43:32;2.22;;;1.05;;
53293;SDS011;39181;53.440;5.644;2023-06-04T14:45:57;3.17;;;1.00;;
53293;SDS011;39181;53.440;5.644;2023-06-04T14:48:23;3.17;;;1.20;;
53293;SDS011;39181;53.440;5.644;2023-06-04T14:50:48;3.45;;;1.48;;
53293;SDS011;39181;53.440;5.644;2023-06-04T14:53:18;3.88;;;1.60;;
53293;SDS011;39181;53.440;5.644;2023-06-04T14:55:44;2.35;;;1.23;;
53293;SDS011;39181;53.440;5.644;2023-06-04T14:58:11;4.47;;;1.27;;
53293;SDS011;39181;53.440;5.644;2023-06-04T15:00:36;3.72;;;1.30;;
53293;SDS011;39181;53.440;5.644;2023-06-04T15:03:02;7.18;;;1.45;;
53293;SDS011;39181;53.440;5.644;2023-06-04T15:05:28;4.38;;;1.58;;
53293;SDS011;39181;53.440;5.644;2023-06-04T15:07:53;6.63;;;1.70;;